sensor_id;sensor_type;location;lat;lon;timestamp;temperature;humidity
12847;DHT22;6492;48.128;8.320;2023-07-13T00:02:33;14.80;25.20
12847;DHT22;6492;48.128;8.320;2023-07-13T00:06:35;14.80;24.50
12847;DHT22;6492;48.128;8.320;2023-07-13T00:10:39;14.70;24.10
12847;DHT22;6492;48.128;8.320;2023-07-13T00:14:43;14.80;24.40
12847;DHT22;6492;48.128;8.320;2023-07-13T00:18:45;14.60;25.60
12847;DHT22;6492;48.128;8.320;2023-07-13T00:22:47;14.50;27.00
12847;DHT22;6492;48.128;8.320;2023-07-13T00:26:50;14.40;27.80
12847;DHT22;6492;48.128;8.320;2023-07-13T00:30:53;14.30;28.80
12847;DHT22;6492;48.128;8.320;2023-07-13T00:34:55;14.30;29.20
12847;DHT22;6492;48.128;8.320;2023-07-13T00:38:57;14.20;29.30
12847;DHT22;6492;48.128;8.320;2023-07-13T00:42:59;14.40;29.00
12847;DHT22;6492;48.128;8.320;2023-07-13T00:47:03;14.10;28.40
12847;DHT22;6492;48.128;8.320;2023-07-13T00:51:05;14.00;28.20
12847;DHT22;6492;48.128;8.320;2023-07-13T00:55:07;13.90;28.40
12847;DHT22;6492;48.128;8.320;2023-07-13T00:59:12;13.80;28.70
12847;DHT22;6492;48.128;8.320;2023-07-13T01:03:16;13.80;29.20
12847;DHT22;6492;48.128;8.320;2023-07-13T01:07:18;13.80;29.30
12847;DHT22;6492;48.128;8.320;2023-07-13T01:11:21;13.80;28.80
12847;DHT22;6492;48.128;8.320;2023-07-13T01:15:36;13.70;29.00
12847;DHT22;6492;48.128;8.320;2023-07-13T01:19:42;13.70;29.20
12847;DHT22;6492;48.128;8.320;2023-07-13T01:23:45;13.60;30.10
12847;DHT22;6492;48.128;8.320;2023-07-13T01:27:59;13.50;32.40
12847;DHT22;6492;48.128;8.320;2023-07-13T01:32:01;13.40;34.50
12847;DHT22;6492;48.128;8.320;2023-07-13T01:36:03;13.30;35.00
12847;DHT22;6492;48.128;8.320;2023-07-13T01:40:07;13.20;34.00
12847;DHT22;6492;48.128;8.320;2023-07-13T01:44:09;13.10;33.70
12847;DHT22;6492;48.128;8.320;2023-07-13T01:48:11;13.00;33.70
12847;DHT22;6492;48.128;8.320;2023-07-13T01:52:13;12.90;33.90
12847;DHT22;6492;48.128;8.320;2023-07-13T01:56:16;12.70;35.90
12847;DHT22;6492;48.128;8.320;2023-07-13T02:00:19;12.60;37.30
12847;DHT22;6492;48.128;8.320;2023-07-13T02:04:20;12.40;37.80
12847;DHT22;6492;48.128;8.320;2023-07-13T02:08:22;12.30;37.80
12847;DHT22;6492;48.128;8.320;2023-07-13T02:12:25;12.30;37.90
12847;DHT22;6492;48.128;8.320;2023-07-13T02:16:27;12.20;37.30
12847;DHT22;6492;48.128;8.320;2023-07-13T02:20:29;12.10;37.50
12847;DHT22;6492;48.128;8.320;2023-07-13T02:24:31;12.00;38.20
12847;DHT22;6492;48.128;8.320;2023-07-13T02:28:34;11.90;38.30
12847;DHT22;6492;48.128;8.320;2023-07-13T02:32:36;11.90;39.10
12847;DHT22;6492;48.128;8.320;2023-07-13T02:36:37;11.90;41.20
12847;DHT22;6492;48.128;8.320;2023-07-13T02:40:39;11.90;41.10
12847;DHT22;6492;48.128;8.320;2023-07-13T02:44:42;11.90;41.50
12847;DHT22;6492;48.128;8.320;2023-07-13T02:48:44;12.00;40.60
12847;DHT22;6492;48.128;8.320;2023-07-13T02:52:46;12.00;40.00
12847;DHT22;6492;48.128;8.320;2023-07-13T02:57:11;12.10;40.00
12847;DHT22;6492;48.128;8.320;2023-07-13T03:01:14;12.10;40.90
12847;DHT22;6492;48.128;8.320;2023-07-13T03:05:19;12.20;41.60
12847;DHT22;6492;48.128;8.320;2023-07-13T03:09:21;12.30;40.40
12847;DHT22;6492;48.128;8.320;2023-07-13T03:13:23;12.30;39.80
12847;DHT22;6492;48.128;8.320;2023-07-13T03:17:26;12.30;39.30
12847;DHT22;6492;48.128;8.320;2023-07-13T03:21:28;12.30;39.10
12847;DHT22;6492;48.128;8.320;2023-07-13T03:25:30;12.30;39.00
12847;DHT22;6492;48.128;8.320;2023-07-13T03:29:32;12.40;39.70
12847;DHT22;6492;48.128;8.320;2023-07-13T03:33:35;12.40;38.50
12847;DHT22;6492;48.128;8.320;2023-07-13T03:37:37;12.60;38.00
12847;DHT22;6492;48.128;8.320;2023-07-13T03:41:42;12.50;37.80
12847;DHT22;6492;48.128;8.320;2023-07-13T03:45:44;12.50;37.10
12847;DHT22;6492;48.128;8.320;2023-07-13T03:49:47;12.60;36.50
12847;DHT22;6492;48.128;8.320;2023-07-13T03:53:50;12.70;38.00
12847;DHT22;6492;48.128;8.320;2023-07-13T03:57:58;12.70;38.60
12847;DHT22;6492;48.128;8.320;2023-07-13T04:02:00;12.70;38.00
12847;DHT22;6492;48.128;8.320;2023-07-13T04:06:11;12.80;37.00
12847;DHT22;6492;48.128;8.320;2023-07-13T04:10:16;12.80;36.50
12847;DHT22;6492;48.128;8.320;2023-07-13T04:14:18;12.90;37.10
12847;DHT22;6492;48.128;8.320;2023-07-13T04:18:21;12.90;37.20
12847;DHT22;6492;48.128;8.320;2023-07-13T04:22:24;12.90;37.80
12847;DHT22;6492;48.128;8.320;2023-07-13T04:26:26;13.00;37.60
12847;DHT22;6492;48.128;8.320;2023-07-13T04:30:27;13.00;37.70
12847;DHT22;6492;48.128;8.320;2023-07-13T04:34:29;13.00;37.70
12847;DHT22;6492;48.128;8.320;2023-07-13T04:38:33;13.10;38.00
12847;DHT22;6492;48.128;8.320;2023-07-13T04:42:35;13.30;37.50
12847;DHT22;6492;48.128;8.320;2023-07-13T04:46:37;13.40;34.60
12847;DHT22;6492;48.128;8.320;2023-07-13T04:50:39;13.60;33.90
12847;DHT22;6492;48.128;8.320;2023-07-13T04:54:42;13.70;33.60
12847;DHT22;6492;48.128;8.320;2023-07-13T04:58:44;13.90;32.70
12847;DHT22;6492;48.128;8.320;2023-07-13T05:02:46;13.90;32.10
12847;DHT22;6492;48.128;8.320;2023-07-13T05:06:48;13.90;32.00
12847;DHT22;6492;48.128;8.320;2023-07-13T05:10:51;14.00;32.90
12847;DHT22;6492;48.128;8.320;2023-07-13T05:14:53;14.10;34.30
12847;DHT22;6492;48.128;8.320;2023-07-13T05:18:55;14.50;34.40
12847;DHT22;6492;48.128;8.320;2023-07-13T05:22:57;14.80;30.90
12847;DHT22;6492;48.128;8.320;2023-07-13T05:27:00;15.10;27.90
12847;DHT22;6492;48.128;8.320;2023-07-13T05:31:02;15.50;26.10
12847;DHT22;6492;48.128;8.320;2023-07-13T05:35:07;15.80;24.10
12847;DHT22;6492;48.128;8.320;2023-07-13T05:39:09;16.10;23.10
12847;DHT22;6492;48.128;8.320;2023-07-13T05:43:14;16.20;21.20
12847;DHT22;6492;48.128;8.320;2023-07-13T05:47:16;16.30;21.70
12847;DHT22;6492;48.128;8.320;2023-07-13T05:51:22;16.50;21.10
12847;DHT22;6492;48.128;8.320;2023-07-13T05:55:23;16.80;20.30
12847;DHT22;6492;48.128;8.320;2023-07-13T05:59:27;16.90;19.70
12847;DHT22;6492;48.128;8.320;2023-07-13T06:03:28;16.90;19.10
12847;DHT22;6492;48.128;8.320;2023-07-13T06:07:30;16.90;18.20
12847;DHT22;6492;48.128;8.320;2023-07-13T06:11:32;17.10;16.90
12847;DHT22;6492;48.128;8.320;2023-07-13T06:15:37;17.30;15.00
12847;DHT22;6492;48.128;8.320;2023-07-13T06:19:38;17.20;14.90
12847;DHT22;6492;48.128;8.320;2023-07-13T06:23:40;17.10;13.30
12847;DHT22;6492;48.128;8.320;2023-07-13T06:27:42;17.40;13.60
12847;DHT22;6492;48.128;8.320;2023-07-13T06:31:45;17.70;11.70
12847;DHT22;6492;48.128;8.320;2023-07-13T06:35:47;17.80;10.40
12847;DHT22;6492;48.128;8.320;2023-07-13T06:39:49;18.60;8.40
12847;DHT22;6492;48.128;8.320;2023-07-13T06:44:06;19.80;3.70
12847;DHT22;6492;48.128;8.320;2023-07-13T06:48:09;21.30;1.00
12847;DHT22;6492;48.128;8.320;2023-07-13T06:52:11;22.70;1.00
12847;DHT22;6492;48.128;8.320;2023-07-13T06:56:13;24.20;1.00
12847;DHT22;6492;48.128;8.320;2023-07-13T07:00:15;25.40;1.00
12847;DHT22;6492;48.128;8.320;2023-07-13T07:04:19;26.40;1.00
12847;DHT22;6492;48.128;8.320;2023-07-13T07:08:20;27.40;1.00
12847;DHT22;6492;48.128;8.320;2023-07-13T07:12:22;27.90;1.00
12847;DHT22;6492;48.128;8.320;2023-07-13T07:16:24;28.30;1.00
12847;DHT22;6492;48.128;8.320;2023-07-13T07:20:28;28.60;1.00
12847;DHT22;6492;48.128;8.320;2023-07-13T07:24:31;29.00;1.00
12847;DHT22;6492;48.128;8.320;2023-07-13T07:28:33;29.20;1.00
12847;DHT22;6492;48.128;8.320;2023-07-13T07:32:35;29.70;1.00
12847;DHT22;6492;48.128;8.320;2023-07-13T07:36:38;29.60;1.00
12847;DHT22;6492;48.128;8.320;2023-07-13T07:40:40;29.80;1.00
12847;DHT22;6492;48.128;8.320;2023-07-13T07:44:43;30.00;1.00
12847;DHT22;6492;48.128;8.320;2023-07-13T07:48:44;29.90;1.00
12847;DHT22;6492;48.128;8.320;2023-07-13T07:52:47;29.10;1.00
12847;DHT22;6492;48.128;8.320;2023-07-13T07:56:49;28.70;1.00
12847;DHT22;6492;48.128;8.320;2023-07-13T08:00:51;29.20;1.00
12847;DHT22;6492;48.128;8.320;2023-07-13T08:04:53;29.30;1.00
12847;DHT22;6492;48.128;8.320;2023-07-13T08:08:56;28.60;1.00
12847;DHT22;6492;48.128;8.320;2023-07-13T08:12:58;28.80;1.00
12847;DHT22;6492;48.128;8.320;2023-07-13T08:17:00;29.50;1.00
12847;DHT22;6492;48.128;8.320;2023-07-13T08:21:03;29.40;1.00
12847;DHT22;6492;48.128;8.320;2023-07-13T08:25:15;28.60;1.00
12847;DHT22;6492;48.128;8.320;2023-07-13T08:29:16;27.20;1.00
12847;DHT22;6492;48.128;8.320;2023-07-13T08:33:19;26.30;1.00
12847;DHT22;6492;48.128;8.320;2023-07-13T08:37:22;26.70;1.00
12847;DHT22;6492;48.128;8.320;2023-07-13T08:41:26;26.50;1.00
12847;DHT22;6492;48.128;8.320;2023-07-13T08:45:33;25.70;1.00
12847;DHT22;6492;48.128;8.320;2023-07-13T08:49:39;24.30;1.00
12847;DHT22;6492;48.128;8.320;2023-07-13T08:53:46;23.70;1.00
12847;DHT22;6492;48.128;8.320;2023-07-13T08:57:54;24.30;1.00
12847;DHT22;6492;48.128;8.320;2023-07-13T09:02:15;24.90;1.00
12847;DHT22;6492;48.128;8.320;2023-07-13T09:06:34;24.70;1.00
12847;DHT22;6492;48.128;8.320;2023-07-13T09:10:42;23.90;1.00
12847;DHT22;6492;48.128;8.320;2023-07-13T09:14:49;23.60;1.00
12847;DHT22;6492;48.128;8.320;2023-07-13T09:18:56;23.40;1.00
12847;DHT22;6492;48.128;8.320;2023-07-13T09:23:03;23.60;1.00
12847;DHT22;6492;48.128;8.320;2023-07-13T09:27:13;24.00;1.00
12847;DHT22;6492;48.128;8.320;2023-07-13T09:31:23;24.10;1.00
12847;DHT22;6492;48.128;8.320;2023-07-13T09:35:28;24.10;1.00
12847;DHT22;6492;48.128;8.320;2023-07-13T09:39:34;23.90;1.00
12847;DHT22;6492;48.128;8.320;2023-07-13T09:43:37;24.00;1.00
12847;DHT22;6492;48.128;8.320;2023-07-13T09:47:40;24.30;1.00
12847;DHT22;6492;48.128;8.320;2023-07-13T09:51:42;24.50;1.00
12847;DHT22;6492;48.128;8.320;2023-07-13T09:55:46;24.30;1.00
12847;DHT22;6492;48.128;8.320;2023-07-13T09:59:50;24.00;1.00
12847;DHT22;6492;48.128;8.320;2023-07-13T10:03:54;23.90;1.00
12847;DHT22;6492;48.128;8.320;2023-07-13T10:07:56;23.90;1.00
12847;DHT22;6492;48.128;8.320;2023-07-13T10:11:58;24.10;1.00
12847;DHT22;6492;48.128;8.320;2023-07-13T10:16:00;24.70;1.00
12847;DHT22;6492;48.128;8.320;2023-07-13T10:20:05;25.00;1.00
12847;DHT22;6492;48.128;8.320;2023-07-13T10:24:15;25.20;1.00
12847;DHT22;6492;48.128;8.320;2023-07-13T10:28:26;25.10;1.00
12847;DHT22;6492;48.128;8.320;2023-07-13T10:32:29;25.00;1.00
12847;DHT22;6492;48.128;8.320;2023-07-13T10:36:35;25.10;1.00
12847;DHT22;6492;48.128;8.320;2023-07-13T10:40:45;25.10;1.00
12847;DHT22;6492;48.128;8.320;2023-07-13T10:44:50;25.10;1.00
12847;DHT22;6492;48.128;8.320;2023-07-13T10:48:55;25.10;1.00
12847;DHT22;6492;48.128;8.320;2023-07-13T10:53:03;24.80;1.00
12847;DHT22;6492;48.128;8.320;2023-07-13T10:57:20;24.80;1.00
12847;DHT22;6492;48.128;8.320;2023-07-13T11:01:23;25.00;1.00
12847;DHT22;6492;48.128;8.320;2023-07-13T11:05:29;25.20;1.00
12847;DHT22;6492;48.128;8.320;2023-07-13T11:09:38;25.30;1.00
12847;DHT22;6492;48.128;8.320;2023-07-13T11:13:58;25.60;1.00
12847;DHT22;6492;48.128;8.320;2023-07-13T11:18:04;26.30;1.00
12847;DHT22;6492;48.128;8.320;2023-07-13T11:22:21;26.80;1.00
12847;DHT22;6492;48.128;8.320;2023-07-13T11:26:52;26.90;1.00
12847;DHT22;6492;48.128;8.320;2023-07-13T11:31:02;27.10;1.00
12847;DHT22;6492;48.128;8.320;2023-07-13T11:35:12;27.50;1.00
12847;DHT22;6492;48.128;8.320;2023-07-13T11:39:18;27.30;1.00
12847;DHT22;6492;48.128;8.320;2023-07-13T11:43:23;27.50;1.00
12847;DHT22;6492;48.128;8.320;2023-07-13T11:47:25;27.60;1.00
12847;DHT22;6492;48.128;8.320;2023-07-13T11:51:31;27.40;1.00
12847;DHT22;6492;48.128;8.320;2023-07-13T11:55:38;27.60;1.00
12847;DHT22;6492;48.128;8.320;2023-07-13T11:59:41;27.70;1.00
12847;DHT22;6492;48.128;8.320;2023-07-13T12:03:44;27.80;1.00
12847;DHT22;6492;48.128;8.320;2023-07-13T12:07:48;27.80;1.00
12847;DHT22;6492;48.128;8.320;2023-07-13T12:11:50;28.00;1.00
12847;DHT22;6492;48.128;8.320;2023-07-13T12:15:54;28.10;1.00
12847;DHT22;6492;48.128;8.320;2023-07-13T12:19:58;28.20;1.00
12847;DHT22;6492;48.128;8.320;2023-07-13T12:24:00;28.20;1.00
12847;DHT22;6492;48.128;8.320;2023-07-13T12:28:20;28.30;1.00
12847;DHT22;6492;48.128;8.320;2023-07-13T12:32:24;28.50;1.00
12847;DHT22;6492;48.128;8.320;2023-07-13T12:36:30;28.50;1.00
12847;DHT22;6492;48.128;8.320;2023-07-13T12:40:34;28.50;1.00
12847;DHT22;6492;48.128;8.320;2023-07-13T12:44:40;28.40;1.00
12847;DHT22;6492;48.128;8.320;2023-07-13T12:48:47;27.50;1.00
12847;DHT22;6492;48.128;8.320;2023-07-13T12:52:51;27.10;1.00
12847;DHT22;6492;48.128;8.320;2023-07-13T12:56:55;27.30;1.00
12847;DHT22;6492;48.128;8.320;2023-07-13T13:01:01;26.90;1.00
12847;DHT22;6492;48.128;8.320;2023-07-13T13:05:05;26.60;1.00
12847;DHT22;6492;48.128;8.320;2023-07-13T13:09:12;26.60;1.00
12847;DHT22;6492;48.128;8.320;2023-07-13T13:13:14;26.80;1.00
12847;DHT22;6492;48.128;8.320;2023-07-13T13:17:19;26.80;1.00
12847;DHT22;6492;48.128;8.320;2023-07-13T13:21:24;27.00;1.00
12847;DHT22;6492;48.128;8.320;2023-07-13T13:25:26;26.90;1.00
12847;DHT22;6492;48.128;8.320;2023-07-13T13:29:28;26.90;1.00
12847;DHT22;6492;48.128;8.320;2023-07-13T13:33:30;26.70;1.00
12847;DHT22;6492;48.128;8.320;2023-07-13T13:37:33;26.70;1.00
12847;DHT22;6492;48.128;8.320;2023-07-13T13:41:35;27.10;1.00
12847;DHT22;6492;48.128;8.320;2023-07-13T13:45:37;26.70;1.00
12847;DHT22;6492;48.128;8.320;2023-07-13T13:49:39;25.80;1.00
12847;DHT22;6492;48.128;8.320;2023-07-13T13:53:42;25.20;1.00
12847;DHT22;6492;48.128;8.320;2023-07-13T13:57:45;25.70;1.00
12847;DHT22;6492;48.128;8.320;2023-07-13T14:01:48;25.70;1.00
12847;DHT22;6492;48.128;8.320;2023-07-13T14:05:52;25.20;1.00
12847;DHT22;6492;48.128;8.320;2023-07-13T14:09:58;24.70;1.00
12847;DHT22;6492;48.128;8.320;2023-07-13T14:14:00;24.50;1.00
12847;DHT22;6492;48.128;8.320;2023-07-13T14:18:04;25.00;1.00
12847;DHT22;6492;48.128;8.320;2023-07-13T14:22:07;25.40;1.00
12847;DHT22;6492;48.128;8.320;2023-07-13T14:26:13;26.00;1.00
12847;DHT22;6492;48.128;8.320;2023-07-13T14:30:17;26.10;1.00
12847;DHT22;6492;48.128;8.320;2023-07-13T14:34:19;25.90;1.00
12847;DHT22;6492;48.128;8.320;2023-07-13T14:38:21;25.70;1.00
12847;DHT22;6492;48.128;8.320;2023-07-13T14:42:24;26.20;1.00
12847;DHT22;6492;48.128;8.320;2023-07-13T14:46:29;26.80;1.00
12847;DHT22;6492;48.128;8.320;2023-07-13T14:50:32;26.80;1.00
12847;DHT22;6492;48.128;8.320;2023-07-13T14:54:36;26.50;1.00
12847;DHT22;6492;48.128;8.320;2023-07-13T14:58:43;25.90;1.00
12847;DHT22;6492;48.128;8.320;2023-07-13T15:02:49;25.30;1.00
12847;DHT22;6492;48.128;8.320;2023-07-13T15:06:57;25.20;1.00
12847;DHT22;6492;48.128;8.320;2023-07-13T15:11:01;25.40;1.00
12847;DHT22;6492;48.128;8.320;2023-07-13T15:15:07;25.20;1.00
12847;DHT22;6492;48.128;8.320;2023-07-13T15:19:09;24.40;1.00
12847;DHT22;6492;48.128;8.320;2023-07-13T15:23:12;23.70;1.00
12847;DHT22;6492;48.128;8.320;2023-07-13T15:27:14;23.40;1.00
12847;DHT22;6492;48.128;8.320;2023-07-13T15:31:22;23.30;1.00
12847;DHT22;6492;48.128;8.320;2023-07-13T15:35:26;23.50;1.00
12847;DHT22;6492;48.128;8.320;2023-07-13T15:39:29;24.00;1.00
12847;DHT22;6492;48.128;8.320;2023-07-13T15:43:32;24.60;1.00
12847;DHT22;6492;48.128;8.320;2023-07-13T15:47:36;24.90;1.00
12847;DHT22;6492;48.128;8.320;2023-07-13T15:51:38;24.90;1.00
12847;DHT22;6492;48.128;8.320;2023-07-13T15:55:40;25.00;1.00
12847;DHT22;6492;48.128;8.320;2023-07-13T15:59:44;24.70;1.00
12847;DHT22;6492;48.128;8.320;2023-07-13T16:03:47;24.20;1.00
12847;DHT22;6492;48.128;8.320;2023-07-13T16:07:51;23.70;1.00
12847;DHT22;6492;48.128;8.320;2023-07-13T16:11:53;23.50;1.00
12847;DHT22;6492;48.128;8.320;2023-07-13T16:15:58;23.40;1.00
12847;DHT22;6492;48.128;8.320;2023-07-13T16:20:01;23.30;1.00
12847;DHT22;6492;48.128;8.320;2023-07-13T16:24:04;23.10;1.00
12847;DHT22;6492;48.128;8.320;2023-07-13T16:28:22;23.20;1.00
12847;DHT22;6492;48.128;8.320;2023-07-13T16:32:24;23.50;1.00
12847;DHT22;6492;48.128;8.320;2023-07-13T16:36:29;23.80;1.00
12847;DHT22;6492;48.128;8.320;2023-07-13T16:40:32;24.10;1.00
12847;DHT22;6492;48.128;8.320;2023-07-13T16:44:35;24.30;1.00
12847;DHT22;6492;48.128;8.320;2023-07-13T16:48:37;24.40;1.00
12847;DHT22;6492;48.128;8.320;2023-07-13T16:52:51;24.30;1.00
12847;DHT22;6492;48.128;8.320;2023-07-13T16:56:59;24.30;1.00
12847;DHT22;6492;48.128;8.320;2023-07-13T17:01:03;24.50;1.00
12847;DHT22;6492;48.128;8.320;2023-07-13T17:05:08;24.20;1.00
12847;DHT22;6492;48.128;8.320;2023-07-13T17:09:21;24.00;1.00
12847;DHT22;6492;48.128;8.320;2023-07-13T17:13:25;23.90;1.00
12847;DHT22;6492;48.128;8.320;2023-07-13T17:17:30;23.70;1.00
12847;DHT22;6492;48.128;8.320;2023-07-13T17:21:33;23.60;1.00
12847;DHT22;6492;48.128;8.320;2023-07-13T17:25:37;23.50;1.00
12847;DHT22;6492;48.128;8.320;2023-07-13T17:29:40;23.50;1.00
12847;DHT22;6492;48.128;8.320;2023-07-13T17:33:43;23.60;1.00
12847;DHT22;6492;48.128;8.320;2023-07-13T17:37:46;23.40;1.00
12847;DHT22;6492;48.128;8.320;2023-07-13T17:41:49;23.50;1.00
12847;DHT22;6492;48.128;8.320;2023-07-13T17:45:53;23.50;1.00
12847;DHT22;6492;48.128;8.320;2023-07-13T17:49:58;23.60;1.00
12847;DHT22;6492;48.128;8.320;2023-07-13T17:54:01;23.30;1.00
12847;DHT22;6492;48.128;8.320;2023-07-13T17:58:04;23.10;1.00
12847;DHT22;6492;48.128;8.320;2023-07-13T18:02:11;22.90;1.00
12847;DHT22;6492;48.128;8.320;2023-07-13T18:06:21;22.80;1.00
12847;DHT22;6492;48.128;8.320;2023-07-13T18:10:25;22.70;1.00
12847;DHT22;6492;48.128;8.320;2023-07-13T18:14:28;22.40;1.00
12847;DHT22;6492;48.128;8.320;2023-07-13T18:18:34;21.80;1.00
12847;DHT22;6492;48.128;8.320;2023-07-13T18:22:36;21.30;1.00
12847;DHT22;6492;48.128;8.320;2023-07-13T18:26:38;21.10;1.00
12847;DHT22;6492;48.128;8.320;2023-07-13T18:30:54;20.90;1.00
12847;DHT22;6492;48.128;8.320;2023-07-13T18:34:57;20.80;1.00
12847;DHT22;6492;48.128;8.320;2023-07-13T18:38:58;20.60;1.00
12847;DHT22;6492;48.128;8.320;2023-07-13T18:43:16;20.30;1.00
12847;DHT22;6492;48.128;8.320;2023-07-13T18:47:20;19.80;1.00
12847;DHT22;6492;48.128;8.320;2023-07-13T18:51:25;19.40;1.00
12847;DHT22;6492;48.128;8.320;2023-07-13T18:55:38;19.10;1.00
12847;DHT22;6492;48.128;8.320;2023-07-13T18:59:40;18.90;1.00
12847;DHT22;6492;48.128;8.320;2023-07-13T19:03:43;18.80;1.00
12847;DHT22;6492;48.128;8.320;2023-07-13T19:07:45;18.50;1.00
12847;DHT22;6492;48.128;8.320;2023-07-13T19:11:48;18.20;1.00
12847;DHT22;6492;48.128;8.320;2023-07-13T19:16:08;18.00;1.00
12847;DHT22;6492;48.128;8.320;2023-07-13T19:20:13;17.80;1.00
12847;DHT22;6492;48.128;8.320;2023-07-13T19:24:19;17.60;2.80
12847;DHT22;6492;48.128;8.320;2023-07-13T19:28:44;17.30;5.10
12847;DHT22;6492;48.128;8.320;2023-07-13T19:32:46;16.90;6.50
12847;DHT22;6492;48.128;8.320;2023-07-13T19:37:00;16.60;8.60
12847;DHT22;6492;48.128;8.320;2023-07-13T19:41:04;16.30;8.80
12847;DHT22;6492;48.128;8.320;2023-07-13T19:45:14;16.00;8.30
12847;DHT22;6492;48.128;8.320;2023-07-13T19:49:16;15.70;9.60
12847;DHT22;6492;48.128;8.320;2023-07-13T19:53:33;15.40;11.60
12847;DHT22;6492;48.128;8.320;2023-07-13T19:57:35;15.20;12.50
12847;DHT22;6492;48.128;8.320;2023-07-13T20:01:52;15.00;13.10
12847;DHT22;6492;48.128;8.320;2023-07-13T20:05:55;14.80;13.40
12847;DHT22;6492;48.128;8.320;2023-07-13T20:10:00;14.60;13.70
12847;DHT22;6492;48.128;8.320;2023-07-13T20:14:17;14.50;13.70
12847;DHT22;6492;48.128;8.320;2023-07-13T20:18:19;14.40;13.90
12847;DHT22;6492;48.128;8.320;2023-07-13T20:22:21;14.40;14.20
12847;DHT22;6492;48.128;8.320;2023-07-13T20:26:24;14.30;14.50
12847;DHT22;6492;48.128;8.320;2023-07-13T20:35:28;14.20;15.00
12847;DHT22;6492;48.128;8.320;2023-07-13T20:39:30;14.20;15.40
12847;DHT22;6492;48.128;8.320;2023-07-13T20:43:33;14.10;15.40
12847;DHT22;6492;48.128;8.320;2023-07-13T20:47:36;14.00;15.20
12847;DHT22;6492;48.128;8.320;2023-07-13T20:51:47;13.90;16.00
12847;DHT22;6492;48.128;8.320;2023-07-13T20:56:11;13.80;16.80
12847;DHT22;6492;48.128;8.320;2023-07-13T21:00:17;13.70;16.90
12847;DHT22;6492;48.128;8.320;2023-07-13T21:04:19;13.60;16.40
12847;DHT22;6492;48.128;8.320;2023-07-13T21:08:26;13.50;17.10
12847;DHT22;6492;48.128;8.320;2023-07-13T21:12:28;13.40;18.80
12847;DHT22;6492;48.128;8.320;2023-07-13T21:16:31;13.30;20.30
12847;DHT22;6492;48.128;8.320;2023-07-13T21:20:36;13.20;21.00
12847;DHT22;6492;48.128;8.320;2023-07-13T21:24:38;13.10;21.60
12847;DHT22;6492;48.128;8.320;2023-07-13T21:28:42;13.10;22.40
12847;DHT22;6492;48.128;8.320;2023-07-13T21:37:52;13.00;22.30
12847;DHT22;6492;48.128;8.320;2023-07-13T21:42:12;12.80;22.30
12847;DHT22;6492;48.128;8.320;2023-07-13T21:46:49;12.60;23.10
12847;DHT22;6492;48.128;8.320;2023-07-13T21:50:52;12.50;24.50
12847;DHT22;6492;48.128;8.320;2023-07-13T21:54:56;12.40;26.10
12847;DHT22;6492;48.128;8.320;2023-07-13T21:58:58;12.40;26.20
12847;DHT22;6492;48.128;8.320;2023-07-13T22:02:59;12.30;25.90
12847;DHT22;6492;48.128;8.320;2023-07-13T22:07:01;12.30;26.30
12847;DHT22;6492;48.128;8.320;2023-07-13T22:11:10;12.10;27.60
12847;DHT22;6492;48.128;8.320;2023-07-13T22:15:13;12.10;27.60
12847;DHT22;6492;48.128;8.320;2023-07-13T22:19:17;11.90;28.70
12847;DHT22;6492;48.128;8.320;2023-07-13T22:23:20;11.90;30.10
12847;DHT22;6492;48.128;8.320;2023-07-13T22:27:24;11.80;30.00
12847;DHT22;6492;48.128;8.320;2023-07-13T22:31:29;11.70;29.90
12847;DHT22;6492;48.128;8.320;2023-07-13T22:35:31;11.70;29.80
12847;DHT22;6492;48.128;8.320;2023-07-13T22:39:33;11.60;29.90
12847;DHT22;6492;48.128;8.320;2023-07-13T22:43:37;11.60;30.10
12847;DHT22;6492;48.128;8.320;2023-07-13T22:47:39;11.50;31.40
12847;DHT22;6492;48.128;8.320;2023-07-13T22:51:41;11.40;31.70
12847;DHT22;6492;48.128;8.320;2023-07-13T22:55:43;11.40;31.70
12847;DHT22;6492;48.128;8.320;2023-07-13T22:59:46;11.30;32.10
12847;DHT22;6492;48.128;8.320;2023-07-13T23:03:49;11.30;32.60
12847;DHT22;6492;48.128;8.320;2023-07-13T23:07:51;11.20;33.00
12847;DHT22;6492;48.128;8.320;2023-07-13T23:11:54;11.20;33.10
12847;DHT22;6492;48.128;8.320;2023-07-13T23:16:09;11.10;33.50
12847;DHT22;6492;48.128;8.320;2023-07-13T23:20:21;11.10;33.50
12847;DHT22;6492;48.128;8.320;2023-07-13T23:24:24;11.00;33.90
12847;DHT22;6492;48.128;8.320;2023-07-13T23:28:26;10.90;34.30
12847;DHT22;6492;48.128;8.320;2023-07-13T23:32:29;10.90;35.00
12847;DHT22;6492;48.128;8.320;2023-07-13T23:36:31;11.00;34.50
12847;DHT22;6492;48.128;8.320;2023-07-13T23:40:33;11.20;33.10
12847;DHT22;6492;48.128;8.320;2023-07-13T23:44:34;11.30;32.20
12847;DHT22;6492;48.128;8.320;2023-07-13T23:48:37;11.40;32.00
12847;DHT22;6492;48.128;8.320;2023-07-13T23:52:39;11.30;32.60
12847;DHT22;6492;48.128;8.320;2023-07-13T23:56:41;11.30;33.20
